Time;durP1;ratioP1;P1;durP2;ratioP2;P2;SDS_P1;SDS_P2;PMS_P1;PMS_P2;Temp;Humidity;BMP_temperature;BMP_pressure;BME280_temperature;BME280_humidity;BME280_pressure;Samples;Min_cycle;Max_cycle;Signal;HPM_P1;HPM_P2
2023/03/05 00:02:03;;;;;;;10.02;2.13;;;3.60;99.90;;;;;;5093551;28;20489;-59
2023/03/05 00:04:29;;;;;;;8.38;2.92;;;3.70;99.90;;;;;;5094870;28;20036;-59
2023/03/05 00:06:55;;;;;;;9.50;2.53;;;3.70;99.90;;;;;;5095133;28;20124;-58
2023/03/05 00:09:20;;;;;;;10.63;2.50;;;3.70;99.90;;;;;;5094131;28;20039;-59
2023/03/05 00:11:46;;;;;;;10.07;2.67;;;3.70;99.90;;;;;;5095993;28;20036;-59
2023/03/05 00:14:12;;;;;;;9.82;1.83;;;3.60;99.90;;;;;;5093078;28;20089;-59
2023/03/05 00:16:38;;;;;;;7.82;2.08;;;3.70;99.90;;;;;;5094791;28;20419;-59
2023/03/05 00:19:04;;;;;;;8.20;2.15;;;3.60;99.90;;;;;;5077239;28;20480;-59
2023/03/05 00:21:39;;;;;;;9.20;2.08;;;3.60;99.90;;;;;;5093733;28;20068;-59
2023/03/05 00:24:08;;;;;;;9.33;3.23;;;3.60;99.90;;;;;;5090693;28;20040;-59
2023/03/05 00:26:36;;;;;;;8.23;3.08;;;3.60;99.90;;;;;;5074012;28;20049;-59
2023/03/05 00:29:02;;;;;;;9.35;2.90;;;3.60;99.90;;;;;;5084240;28;20484;-59
2023/03/05 00:31:29;;;;;;;7.43;2.60;;;3.60;99.90;;;;;;5093919;28;20036;-59
2023/03/05 00:33:57;;;;;;;8.00;2.72;;;3.50;99.90;;;;;;5094219;28;20494;-59
2023/03/05 00:36:24;;;;;;;11.98;4.38;;;3.50;99.90;;;;;;5106279;28;20028;-59
2023/03/05 00:38:50;;;;;;;13.77;5.95;;;3.50;99.90;;;;;;5114458;28;20089;-59
2023/03/05 00:41:16;;;;;;;8.75;1.95;;;3.50;99.90;;;;;;5096821;28;20101;-59
2023/03/05 00:43:42;;;;;;;8.25;1.92;;;3.50;99.90;;;;;;5113353;28;20052;-59
2023/03/05 00:46:07;;;;;;;5.88;1.67;;;3.50;99.90;;;;;;5113796;28;20054;-59
2023/03/05 00:48:33;;;;;;;6.72;1.80;;;3.50;99.90;;;;;;5097388;28;20035;-58
2023/03/05 00:50:59;;;;;;;7.68;1.85;;;3.50;99.90;;;;;;5096604;28;20070;-59
2023/03/05 00:53:25;;;;;;;7.97;2.13;;;3.60;99.90;;;;;;5115076;28;20040;-59
2023/03/05 00:55:50;;;;;;;14.60;2.20;;;3.60;99.90;;;;;;5115253;28;20036;-59
2023/03/05 00:58:16;;;;;;;4.90;1.75;;;3.60;99.90;;;;;;5114119;28;20047;-58
2023/03/05 01:00:42;;;;;;;7.03;1.85;;;3.70;99.90;;;;;;5114083;28;20047;-59
2023/03/05 01:03:07;;;;;;;4.90;1.92;;;3.60;99.90;;;;;;5113058;28;20046;-59
2023/03/05 01:05:33;;;;;;;8.75;2.05;;;3.70;99.90;;;;;;5113258;28;20400;-59
2023/03/05 01:07:59;;;;;;;4.28;1.48;;;3.60;99.90;;;;;;5113591;28;20084;-59
2023/03/05 01:10:28;;;;;;;9.35;1.98;;;3.60;99.90;;;;;;5114187;28;20453;-58
2023/03/05 01:12:55;;;;;;;7.85;3.28;;;3.60;99.90;;;;;;5096687;28;20130;-59
2023/03/05 01:15:23;;;;;;;8.30;2.53;;;3.50;99.90;;;;;;5113304;28;20507;-59
2023/03/05 01:17:48;;;;;;;5.75;1.58;;;3.50;99.90;;;;;;5113916;28;20123;-59
2023/03/05 01:20:15;;;;;;;5.35;1.83;;;3.40;99.90;;;;;;5114238;28;20114;-59
2023/03/05 01:22:41;;;;;;;7.40;1.80;;;3.50;99.90;;;;;;5113749;28;20036;-59
2023/03/05 01:25:07;;;;;;;10.95;1.67;;;3.40;99.90;;;;;;5095274;28;20408;-59
2023/03/05 01:27:33;;;;;;;5.18;1.20;;;3.40;99.90;;;;;;5114691;28;20476;-59
2023/03/05 01:29:59;;;;;;;5.35;1.20;;;3.40;99.90;;;;;;5093248;28;20094;-59
2023/03/05 01:32:24;;;;;;;6.32;1.48;;;3.40;99.90;;;;;;5091842;28;20047;-59
2023/03/05 01:34:50;;;;;;;5.07;1.50;;;3.40;99.90;;;;;;5093010;28;20071;-59
2023/03/05 01:37:16;;;;;;;4.32;1.20;;;3.40;99.90;;;;;;5093745;28;20092;-59
2023/03/05 01:39:41;;;;;;;6.68;2.40;;;3.40;99.90;;;;;;5094761;28;20074;-59
2023/03/05 01:42:07;;;;;;;8.13;1.80;;;3.40;99.90;;;;;;5113726;28;20400;-59
2023/03/05 01:44:33;;;;;;;11.38;2.85;;;3.30;99.90;;;;;;5096583;28;20036;-59
2023/03/05 01:46:59;;;;;;;4.40;1.35;;;3.30;99.90;;;;;;5111923;28;20039;-59
2023/03/05 01:49:27;;;;;;;7.20;1.42;;;3.30;99.90;;;;;;5112776;28;20042;-59
2023/03/05 01:51:53;;;;;;;3.75;1.20;;;3.30;99.90;;;;;;5113147;28;20071;-59
2023/03/05 01:54:21;;;;;;;5.47;1.10;;;3.30;99.90;;;;;;5094713;28;20395;-59
2023/03/05 01:56:50;;;;;;;7.10;1.70;;;3.20;99.90;;;;;;5113337;28;20044;-59
2023/03/05 01:59:17;;;;;;;4.70;1.38;;;3.20;99.90;;;;;;5113552;28;20115;-59
2023/03/05 02:01:46;;;;;;;5.53;1.73;;;3.20;99.90;;;;;;5087206;28;20082;-59
2023/03/05 02:04:16;;;;;;;5.15;1.55;;;3.20;99.90;;;;;;5071684;28;20046;-59
2023/03/05 02:06:43;;;;;;;6.05;1.77;;;3.10;99.90;;;;;;5071536;28;20036;-59
2023/03/05 02:09:09;;;;;;;6.85;2.00;;;3.20;99.90;;;;;;5071828;28;20041;-59
2023/03/05 02:11:35;;;;;;;5.95;1.33;;;3.20;99.90;;;;;;5073263;28;20553;-59
2023/03/05 02:14:03;;;;;;;8.35;1.60;;;3.20;99.90;;;;;;5070937;28;20044;-59
2023/03/05 02:16:34;;;;;;;10.18;2.30;;;3.10;99.90;;;;;;5076591;28;20039;-59
2023/03/05 02:19:02;;;;;;;6.47;1.88;;;3.20;99.90;;;;;;5092119;28;20051;-59
2023/03/05 02:21:36;;;;;;;5.22;1.73;;;3.20;99.90;;;;;;5092076;28;20093;-59
2023/03/05 02:24:02;;;;;;;8.75;1.92;;;3.20;99.90;;;;;;5092097;28;20395;-59
2023/03/05 02:26:28;;;;;;;8.60;2.28;;;3.20;99.90;;;;;;5092985;28;20093;-59
2023/03/05 02:28:59;;;;;;;9.43;1.85;;;3.30;99.90;;;;;;5092746;28;20468;-59
2023/03/05 02:31:25;;;;;;;7.03;1.25;;;3.30;99.90;;;;;;5073412;28;20036;-59
2023/03/05 02:33:52;;;;;;;7.75;1.70;;;3.30;99.90;;;;;;5091915;28;20044;-59
2023/03/05 02:36:19;;;;;;;5.93;1.40;;;3.40;99.90;;;;;;5091752;28;20036;-59
2023/03/05 02:38:45;;;;;;;7.80;1.27;;;3.40;99.90;;;;;;5093136;28;20112;-59
2023/03/05 02:41:12;;;;;;;7.15;1.35;;;3.40;99.90;;;;;;5092164;28;20512;-59
2023/03/05 02:43:38;;;;;;;5.40;1.00;;;3.50;99.90;;;;;;5092383;28;20048;-59
2023/03/05 02:46:04;;;;;;;3.97;0.98;;;3.50;99.90;;;;;;5074892;28;20430;-59
2023/03/05 02:48:30;;;;;;;8.05;1.30;;;3.40;99.90;;;;;;5091678;28;20546;-59
2023/03/05 02:50:57;;;;;;;4.25;1.00;;;3.40;99.90;;;;;;5092218;28;20380;-59
2023/03/05 02:53:23;;;;;;;5.28;1.05;;;3.40;99.90;;;;;;5092106;28;20043;-59
2023/03/05 02:55:49;;;;;;;5.85;1.20;;;3.30;99.90;;;;;;5090650;28;20044;-59
2023/03/05 02:58:15;;;;;;;4.40;0.98;;;3.30;99.90;;;;;;5096049;28;20075;-59
2023/03/05 03:00:41;;;;;;;11.80;1.40;;;3.30;99.90;;;;;;5111940;28;20089;-59
2023/03/05 03:03:07;;;;;;;2.63;0.80;;;3.20;99.90;;;;;;5108680;28;20130;-59
2023/03/05 03:05:34;;;;;;;7.57;1.60;;;3.20;99.90;;;;;;5111675;28;20075;-59
2023/03/05 03:08:00;;;;;;;6.00;1.77;;;3.20;99.90;;;;;;5111602;28;20039;-59
2023/03/05 03:10:26;;;;;;;6.50;1.25;;;3.10;99.90;;;;;;5110864;28;20130;-59
2023/03/05 03:12:51;;;;;;;8.30;2.25;;;3.10;99.90;;;;;;5112788;28;20039;-59
2023/03/05 03:15:18;;;;;;;7.32;1.50;;;3.10;99.90;;;;;;5111021;28;20051;-59
2023/03/05 03:17:44;;;;;;;4.38;1.00;;;3.10;99.90;;;;;;5111998;28;20119;-59
2023/03/05 03:20:14;;;;;;;5.28;1.05;;;3.10;99.90;;;;;;5111061;28;20035;-59
2023/03/05 03:22:40;;;;;;;4.63;1.00;;;3.10;99.90;;;;;;5112767;28;20040;-59
2023/03/05 03:25:07;;;;;;;6.43;1.40;;;3.10;99.90;;;;;;5109932;28;20568;-59
2023/03/05 03:27:32;;;;;;;4.40;0.98;;;3.10;99.90;;;;;;5088428;28;20040;-59
2023/03/05 03:30:01;;;;;;;6.05;1.20;;;3.20;99.90;;;;;;5070899;28;20040;-59
2023/03/05 03:32:27;;;;;;;4.38;1.10;;;3.10;99.90;;;;;;5070873;28;20497;-59
2023/03/05 03:34:53;;;;;;;4.45;1.00;;;3.20;99.90;;;;;;5087578;28;20398;-59
2023/03/05 03:37:28;;;;;;;6.82;1.15;;;3.20;99.90;;;;;;5071494;28;20112;-59
2023/03/05 03:39:54;;;;;;;4.60;1.17;;;3.20;99.90;;;;;;5086957;28;20504;-59
2023/03/05 03:42:21;;;;;;;7.40;1.05;;;3.20;99.90;;;;;;5091084;28;20048;-59
2023/03/05 03:44:47;;;;;;;6.80;1.20;;;3.20;99.90;;;;;;5092158;28;20481;-59
2023/03/05 03:47:13;;;;;;;5.38;2.10;;;3.20;99.90;;;;;;5089639;28;20480;-59
2023/03/05 03:49:38;;;;;;;10.20;2.05;;;3.30;99.90;;;;;;5091154;28;20047;-59
2023/03/05 03:52:05;;;;;;;8.15;2.50;;;3.30;99.90;;;;;;5086374;28;20564;-59
2023/03/05 03:54:31;;;;;;;7.65;1.42;;;3.40;99.90;;;;;;5070554;28;20037;-59
2023/03/05 03:56:56;;;;;;;9.38;3.25;;;3.30;99.90;;;;;;5097937;28;20040;-59
2023/03/05 03:59:22;;;;;;;5.07;1.48;;;3.30;99.90;;;;;;5111448;28;20391;-59
2023/03/05 04:01:48;;;;;;;7.25;1.20;;;3.30;99.90;;;;;;5112414;28;20039;-59
2023/03/05 04:04:14;;;;;;;5.07;1.20;;;3.20;99.90;;;;;;5110721;28;20036;-59
2023/03/05 04:06:40;;;;;;;9.60;1.30;;;3.20;99.90;;;;;;5110640;28;20039;-59
2023/03/05 04:09:09;;;;;;;4.60;1.67;;;3.30;99.90;;;;;;5088533;28;20044;-59
2023/03/05 04:11:36;;;;;;;6.40;1.00;;;3.20;99.90;;;;;;5102264;28;20040;-59
2023/03/05 04:14:03;;;;;;;5.80;1.20;;;3.20;99.90;;;;;;5089681;28;20047;-59
2023/03/05 04:16:29;;;;;;;5.93;1.05;;;3.20;99.90;;;;;;5090343;28;20092;-59
2023/03/05 04:18:54;;;;;;;5.32;1.20;;;3.20;99.90;;;;;;5090498;28;20040;-58
2023/03/05 04:21:20;;;;;;;4.55;1.00;;;3.20;99.90;;;;;;5089452;28;20185;-59
2023/03/05 04:23:46;;;;;;;5.80;1.25;;;3.20;99.90;;;;;;5074008;28;20069;-59
2023/03/05 04:26:11;;;;;;;7.22;1.45;;;3.20;99.90;;;;;;5091563;28;20043;-59
2023/03/05 04:28:37;;;;;;;9.43;1.75;;;3.20;99.90;;;;;;5072876;28;20127;-59
2023/03/05 04:31:03;;;;;;;6.45;1.30;;;3.20;99.90;;;;;;5090393;28;20036;-58
2023/03/05 04:33:29;;;;;;;5.57;1.30;;;3.20;99.90;;;;;;5090309;28;20048;-59
2023/03/05 04:35:55;;;;;;;4.70;1.40;;;3.20;99.90;;;;;;5090008;28;20443;-59
2023/03/05 04:38:21;;;;;;;5.32;1.25;;;3.30;99.90;;;;;;5086437;28;20119;-59
2023/03/05 04:40:47;;;;;;;8.95;1.60;;;3.30;99.90;;;;;;5071473;28;20382;-59
2023/03/05 04:43:13;;;;;;;7.03;1.58;;;3.30;99.90;;;;;;5070311;28;20044;-59
2023/03/05 04:45:40;;;;;;;6.00;1.95;;;3.30;99.90;;;;;;5074987;28;20037;-59
2023/03/05 04:48:06;;;;;;;10.18;1.92;;;3.30;99.90;;;;;;5073173;28;20040;-59
2023/03/05 04:50:32;;;;;;;3.90;1.20;;;3.30;99.90;;;;;;5091669;28;20399;-59
2023/03/05 04:52:59;;;;;;;6.20;1.55;;;3.40;99.90;;;;;;5093873;28;20123;-59
2023/03/05 04:55:25;;;;;;;5.80;1.30;;;3.40;99.90;;;;;;5089119;28;20484;-59
2023/03/05 04:57:51;;;;;;;5.43;1.20;;;3.40;99.90;;;;;;5073769;28;20075;-59
2023/03/05 05:00:17;;;;;;;9.18;1.83;;;3.40;99.90;;;;;;5056681;28;20515;-59
2023/03/05 05:02:45;;;;;;;7.50;1.58;;;3.40;99.90;;;;;;5072830;28;20477;-59
2023/03/05 05:05:14;;;;;;;8.85;1.80;;;3.40;99.90;;;;;;5072805;28;20048;-59
2023/03/05 05:07:40;;;;;;;6.38;2.10;;;3.50;99.90;;;;;;5074558;28;20488;-59
2023/03/05 05:10:07;;;;;;;7.30;1.50;;;3.40;99.90;;;;;;5085595;28;20082;-59
2023/03/05 05:12:33;;;;;;;8.75;1.73;;;3.40;99.90;;;;;;5093388;28;20047;-59
2023/03/05 05:14:59;;;;;;;5.60;1.40;;;3.40;99.90;;;;;;5093584;28;20036;-59
2023/03/05 05:17:26;;;;;;;6.90;1.48;;;3.40;99.90;;;;;;5093226;28;20140;-59
2023/03/05 05:19:53;;;;;;;8.05;1.65;;;3.30;99.90;;;;;;5093183;28;20051;-59
2023/03/05 05:22:19;;;;;;;4.82;1.20;;;3.20;99.90;;;;;;5094170;28;20114;-59
2023/03/05 05:24:44;;;;;;;9.07;1.83;;;3.20;99.90;;;;;;5089461;28;20123;-59
2023/03/05 05:27:10;;;;;;;12.93;2.10;;;3.10;99.90;;;;;;5073741;28;20040;-59
2023/03/05 05:29:36;;;;;;;9.25;1.50;;;3.10;99.90;;;;;;5074288;28;20037;-59
2023/03/05 05:32:01;;;;;;;9.40;1.73;;;3.10;99.90;;;;;;5071806;28;20036;-59
2023/03/05 05:34:27;;;;;;;7.25;1.63;;;3.10;99.90;;;;;;5072533;28;20047;-59
2023/03/05 05:36:53;;;;;;;5.05;1.55;;;3.10;99.90;;;;;;5072865;28;20032;-59
2023/03/05 05:39:19;;;;;;;6.07;1.55;;;3.00;99.90;;;;;;5078085;28;20084;-59
2023/03/05 05:41:44;;;;;;;4.55;1.23;;;3.00;99.90;;;;;;5094062;28;20055;-59
2023/03/05 05:44:10;;;;;;;7.43;1.75;;;3.00;99.90;;;;;;5092666;28;20427;-59
2023/03/05 05:46:36;;;;;;;6.60;1.50;;;2.90;99.90;;;;;;5088658;28;20078;-59
2023/03/05 05:49:02;;;;;;;4.78;1.42;;;2.90;99.90;;;;;;5089178;28;20036;-59
2023/03/05 05:51:27;;;;;;;8.05;1.80;;;2.90;99.90;;;;;;5089176;28;20044;-59
2023/03/05 05:53:53;;;;;;;5.63;1.38;;;2.90;99.90;;;;;;5054486;28;20048;-59
2023/03/05 05:56:19;;;;;;;7.85;1.80;;;2.90;99.90;;;;;;5072773;28;20059;-59
2023/03/05 05:58:47;;;;;;;6.90;1.50;;;2.90;99.90;;;;;;5088640;28;20037;-59
2023/03/05 06:01:27;;;;;;;5.72;1.42;;;2.90;99.90;;;;;;5089081;28;20046;-59
2023/03/05 06:03:54;;;;;;;4.72;1.15;;;2.90;99.90;;;;;;5114319;28;20080;-59
2023/03/05 06:06:22;;;;;;;7.75;1.55;;;2.90;99.90;;;;;;5094539;28;20048;-59
2023/03/05 06:08:48;;;;;;;5.85;1.30;;;2.90;99.90;;;;;;5096115;28;20043;-59
2023/03/05 06:11:14;;;;;;;7.22;2.30;;;2.80;99.90;;;;;;5112382;28;20036;-59
2023/03/05 06:13:40;;;;;;;8.27;2.03;;;2.90;99.90;;;;;;5111662;28;20040;-59
2023/03/05 06:16:09;;;;;;;5.63;1.63;;;2.90;99.90;;;;;;5112966;28;20092;-59
2023/03/05 06:18:35;;;;;;;8.50;1.25;;;2.80;99.90;;;;;;5112627;28;20089;-59
2023/03/05 06:21:03;;;;;;;8.27;1.60;;;2.80;99.90;;;;;;5112864;28;20085;-59
2023/03/05 06:23:29;;;;;;;7.85;1.85;;;2.80;99.90;;;;;;5112585;28;20087;-59
2023/03/05 06:25:59;;;;;;;6.07;1.65;;;2.80;99.90;;;;;;5095447;28;20484;-59
2023/03/05 06:28:25;;;;;;;7.88;1.48;;;2.80;99.90;;;;;;5094214;28;20534;-59
2023/03/05 06:30:59;;;;;;;6.40;2.10;;;2.70;99.90;;;;;;5103573;28;20044;-59
2023/03/05 06:33:24;;;;;;;6.32;1.63;;;2.70;99.90;;;;;;5071351;28;20292;-59
2023/03/05 06:35:50;;;;;;;6.20;1.55;;;2.70;99.90;;;;;;5071028;28;20040;-59
2023/03/05 06:38:15;;;;;;;5.18;1.65;;;2.60;99.90;;;;;;5072416;28;20040;-59
2023/03/05 06:40:41;;;;;;;8.93;3.72;;;2.60;99.90;;;;;;5071398;28;20162;-59
2023/03/05 06:43:07;;;;;;;7.95;3.70;;;2.60;99.90;;;;;;5080350;28;20412;-59
2023/03/05 06:45:32;;;;;;;7.68;2.83;;;2.60;99.90;;;;;;5092079;28;20498;-61
2023/03/05 06:47:58;;;;;;;6.57;2.63;;;2.50;99.90;;;;;;5090795;28;20046;-61
2023/03/05 06:50:24;;;;;;;8.55;2.17;;;2.50;99.90;;;;;;5092318;28;20438;-59
2023/03/05 06:52:50;;;;;;;6.50;1.88;;;2.50;99.90;;;;;;5091613;28;20507;-59
2023/03/05 06:55:17;;;;;;;4.82;1.63;;;2.50;99.90;;;;;;5090243;28;20032;-59
2023/03/05 06:57:43;;;;;;;7.32;2.50;;;2.40;99.90;;;;;;5074676;28;20035;-59
2023/03/05 07:00:10;;;;;;;5.43;1.50;;;2.50;99.90;;;;;;5091386;28;20036;-59
2023/03/05 07:02:39;;;;;;;5.57;1.20;;;2.50;99.90;;;;;;5090932;28;20044;-59
2023/03/05 07:05:06;;;;;;;7.00;1.77;;;2.50;99.90;;;;;;5091335;28;20389;-59
2023/03/05 07:07:33;;;;;;;4.22;1.75;;;2.50;99.90;;;;;;5091356;28;20097;-59
2023/03/05 07:09:59;;;;;;;6.80;1.75;;;2.50;99.90;;;;;;5091815;28;20848;-59
2023/03/05 07:12:24;;;;;;;5.97;1.83;;;2.50;99.90;;;;;;5089793;28;20051;-59
2023/03/05 07:14:50;;;;;;;7.47;1.38;;;2.50;99.90;;;;;;5092713;28;20032;-59
2023/03/05 07:17:16;;;;;;;7.32;1.33;;;2.60;99.90;;;;;;5090211;28;20556;-59
2023/03/05 07:19:42;;;;;;;10.45;2.05;;;2.60;99.90;;;;;;5074504;28;20039;-59
2023/03/05 07:22:09;;;;;;;4.28;1.15;;;2.60;99.90;;;;;;5092087;28;20103;-59
2023/03/05 07:24:35;;;;;;;6.13;1.75;;;2.60;99.90;;;;;;5090474;28;20043;-59
2023/03/05 07:27:01;;;;;;;5.18;1.20;;;2.60;99.90;;;;;;5092259;28;20035;-59
2023/03/05 07:29:28;;;;;;;5.25;1.48;;;2.60;99.90;;;;;;5090819;28;20500;-59
2023/03/05 07:31:54;;;;;;;7.82;1.85;;;2.70;99.90;;;;;;5073507;28;20074;-59
2023/03/05 07:34:20;;;;;;;7.63;1.60;;;2.70;99.90;;;;;;5090539;28;20051;-59
2023/03/05 07:36:50;;;;;;;8.88;1.50;;;2.70;99.90;;;;;;5090926;28;20409;-59
2023/03/05 07:39:18;;;;;;;10.98;2.50;;;2.70;99.90;;;;;;5089733;28;20036;-59
2023/03/05 07:41:44;;;;;;;6.45;2.45;;;2.80;99.90;;;;;;5090978;28;20063;-59
2023/03/05 07:44:10;;;;;;;11.88;1.90;;;2.80;99.90;;;;;;5091002;28;20051;-59
2023/03/05 07:46:36;;;;;;;10.73;2.15;;;2.80;99.90;;;;;;5090851;28;20044;-59
2023/03/05 07:49:02;;;;;;;10.50;2.90;;;2.90;99.90;;;;;;5091034;28;20043;-59
2023/03/05 07:51:29;;;;;;;9.50;2.85;;;2.90;99.90;;;;;;5090096;28;20392;-59
2023/03/05 07:53:57;;;;;;;5.57;1.77;;;2.90;99.90;;;;;;5092283;28;20044;-59
2023/03/05 07:56:23;;;;;;;5.88;2.50;;;3.00;99.90;;;;;;5091486;28;20590;-59
2023/03/05 07:58:49;;;;;;;7.07;1.63;;;3.00;99.90;;;;;;5086981;28;20049;-59
2023/03/05 08:01:15;;;;;;;8.80;2.13;;;3.10;99.90;;;;;;5053280;28;20039;-59
2023/03/05 08:03:41;;;;;;;7.80;1.40;;;3.10;99.90;;;;;;5087939;28;20040;-59
2023/03/05 08:06:08;;;;;;;5.07;1.48;;;3.20;99.90;;;;;;5110828;28;20507;-59
2023/03/05 08:08:35;;;;;;;8.00;1.48;;;3.30;99.90;;;;;;5105378;28;20078;-59
2023/03/05 08:11:06;;;;;;;6.07;2.03;;;3.30;99.90;;;;;;5101627;28;20392;-59
2023/03/05 08:13:32;;;;;;;5.70;1.50;;;3.40;99.90;;;;;;5110086;28;20047;-59
2023/03/05 08:15:58;;;;;;;5.55;1.48;;;3.50;99.90;;;;;;5110645;28;20031;-59
2023/03/05 08:18:24;;;;;;;6.07;1.60;;;3.50;99.90;;;;;;5111181;28;20399;-59
2023/03/05 08:20:49;;;;;;;8.48;1.70;;;3.60;99.90;;;;;;5106787;28;20036;-58
2023/03/05 08:23:15;;;;;;;4.15;1.30;;;3.70;99.90;;;;;;5104507;28;20044;-59
2023/03/05 08:25:41;;;;;;;7.32;1.90;;;3.80;99.90;;;;;;5092209;28;20040;-59
2023/03/05 08:28:06;;;;;;;8.27;1.95;;;3.90;99.90;;;;;;5088260;28;20066;-59
2023/03/05 08:30:32;;;;;;;7.93;1.70;;;4.00;99.90;;;;;;5093031;28;20489;-59
2023/03/05 08:32:58;;;;;;;8.57;2.00;;;4.10;99.90;;;;;;5075499;28;20044;-59
2023/03/05 08:35:23;;;;;;;6.63;1.98;;;4.20;99.90;;;;;;5089556;28;20378;-59
2023/03/05 08:37:49;;;;;;;8.60;1.67;;;4.30;99.90;;;;;;5074212;28;20440;-58
2023/03/05 08:40:16;;;;;;;9.88;1.92;;;4.30;99.90;;;;;;5071115;28;20048;-59
2023/03/05 08:42:43;;;;;;;9.20;1.92;;;4.50;99.90;;;;;;5070583;28;20094;-59
2023/03/05 08:45:09;;;;;;;7.18;1.60;;;4.60;99.90;;;;;;5054095;28;20560;-59
2023/03/05 08:47:36;;;;;;;5.40;1.33;;;4.70;99.90;;;;;;5070673;28;20048;-59
2023/03/05 08:50:01;;;;;;;16.63;5.15;;;4.80;99.90;;;;;;5070534;28;20110;-59
2023/03/05 08:52:27;;;;;;;9.10;2.00;;;4.90;99.90;;;;;;5071131;28;20048;-59
2023/03/05 08:54:53;;;;;;;10.20;2.22;;;5.00;99.90;;;;;;5070646;28;20033;-59
2023/03/05 08:57:18;;;;;;;9.98;2.30;;;5.10;99.90;;;;;;5090026;28;20123;-59
2023/03/05 08:59:44;;;;;;;6.55;1.92;;;5.10;99.90;;;;;;5086565;28;20050;-58
2023/03/05 09:02:12;;;;;;;7.18;1.40;;;5.20;99.90;;;;;;5090019;28;20097;-59
2023/03/05 09:04:37;;;;;;;9.10;2.75;;;5.30;99.90;;;;;;5090397;28;20558;-59
2023/03/05 09:07:04;;;;;;;3.75;1.13;;;5.40;99.90;;;;;;5087336;28;20036;-59
2023/03/05 09:09:31;;;;;;;5.13;1.00;;;5.50;99.90;;;;;;5090058;28;20128;-59
2023/03/05 09:11:58;;;;;;;6.38;1.55;;;5.50;99.90;;;;;;5096416;28;20059;-59
2023/03/05 09:14:24;;;;;;;3.20;0.98;;;5.40;99.90;;;;;;5090121;28;20396;-59
2023/03/05 09:16:50;;;;;;;3.60;0.70;;;5.20;99.90;;;;;;5090225;28;20541;-59
2023/03/05 09:19:15;;;;;;;7.68;1.33;;;5.10;99.90;;;;;;5078534;28;20123;-59
2023/03/05 09:21:41;;;;;;;5.97;1.10;;;5.10;99.90;;;;;;5083167;28;20132;-58
2023/03/05 09:24:07;;;;;;;5.13;1.00;;;5.00;99.90;;;;;;5089694;28;20059;-59
2023/03/05 09:26:33;;;;;;;5.45;1.77;;;5.00;99.90;;;;;;5066583;28;20453;-59
2023/03/05 09:28:58;;;;;;;4.82;1.10;;;5.10;99.90;;;;;;5073489;28;20051;-59
2023/03/05 09:31:24;;;;;;;5.88;1.25;;;5.20;99.90;;;;;;5084564;28;20044;-59
2023/03/05 09:33:50;;;;;;;4.85;1.50;;;5.30;99.90;;;;;;5083503;28;20044;-60
2023/03/05 09:36:22;;;;;;;5.60;1.83;;;5.40;99.90;;;;;;5086164;28;20059;-60
2023/03/05 09:38:48;;;;;;;4.78;1.05;;;5.40;99.90;;;;;;5076349;28;20123;-60
2023/03/05 09:41:32;;;;;;;6.10;1.10;;;5.50;99.90;;;;;;5061149;28;20132;-60
2023/03/05 09:44:22;;;;;;;8.60;1.50;;;5.50;99.90;;;;;;5089868;28;20780;-60
2023/03/05 09:46:51;;;;;;;8.15;1.15;;;5.50;99.90;;;;;;5077370;28;20127;-60
2023/03/05 09:49:30;;;;;;;4.65;1.40;;;5.60;99.90;;;;;;5107300;28;20293;-60
2023/03/05 09:52:14;;;;;;;6.00;1.35;;;5.70;99.90;;;;;;5104946;28;20039;-60
2023/03/05 09:54:44;;;;;;;5.20;1.65;;;5.70;99.90;;;;;;5091978;28;20102;-60
2023/03/05 09:57:26;;;;;;;7.57;1.63;;;5.70;99.90;;;;;;5089656;28;20039;-60
2023/03/05 10:00:32;;;;;;;10.23;1.67;;;5.70;99.90;;;;;;5075177;28;20462;-60
2023/03/05 10:02:59;;;;;;;;;;;5.70;99.90;;;;;;5031864;28;20051;-60
2023/03/05 10:05:45;;;;;;;4.95;1.08;;;5.80;99.90;;;;;;5063314;28;20339;-60
2023/03/05 10:08:19;;;;;;;6.10;1.27;;;6.00;99.90;;;;;;5079621;28;20055;-60
2023/03/05 10:10:50;;;;;;;13.20;2.05;;;6.10;99.90;;;;;;5071333;28;20045;-60
2023/03/05 10:13:24;;;;;;;5.00;1.10;;;6.20;99.90;;;;;;5068455;28;20415;-60
2023/03/05 10:15:59;;;;;;;4.85;0.90;;;6.20;99.90;;;;;;5094745;28;20110;-60
2023/03/05 10:18:27;;;;;;;5.90;1.00;;;6.10;99.90;;;;;;5111169;28;20051;-60
2023/03/05 10:21:03;;;;;;;4.22;0.90;;;6.10;99.90;;;;;;5109557;28;20040;-59
2023/03/05 10:23:47;;;;;;;;;;;6.20;99.90;;;;;;5106878;28;20039;-60
2023/03/05 10:26:24;;;;;;;3.88;1.30;;;6.20;99.90;;;;;;5087897;28;19920;-60
2023/03/05 10:29:15;;;;;;;5.85;1.15;;;6.40;99.90;;;;;;5081793;28;20045;-60
2023/03/05 10:32:16;;;;;;;6.43;1.85;;;6.50;99.90;;;;;;5070811;28;20089;-60
2023/03/05 10:35:16;;;;;;;4.15;1.30;;;6.50;99.90;;;;;;5049740;28;20060;-60
2023/03/05 10:38:12;;;;;;;10.95;1.60;;;6.40;99.90;;;;;;5074331;28;20496;-60
2023/03/05 10:40:51;;;;;;;9.98;1.80;;;6.30;99.90;;;;;;5086827;28;20048;-60
2023/03/05 10:43:24;;;;;;;5.65;1.23;;;6.40;99.90;;;;;;5072091;28;20052;-60
2023/03/05 10:45:52;;;;;;;6.95;1.20;;;6.40;99.90;;;;;;5068085;28;20119;-60
2023/03/05 10:48:35;;;;;;;5.25;1.30;;;6.40;99.90;;;;;;5089355;28;20443;-60
2023/03/05 10:51:30;;;;;;;6.38;1.70;;;6.30;99.90;;;;;;5089934;28;20043;-60
2023/03/05 10:54:00;;;;;;;7.90;1.63;;;6.40;99.90;;;;;;5022626;27;20064;-60
2023/03/05 10:56:28;;;;;;;4.38;0.93;;;6.50;99.90;;;;;;5108007;28;20040;-60
2023/03/05 10:58:54;;;;;;;5.45;1.40;;;6.50;99.90;;;;;;5103116;28;20045;-60
2023/03/05 11:01:21;;;;;;;3.72;1.10;;;6.60;99.90;;;;;;5083828;28;20037;-60
2023/03/05 11:03:49;;;;;;;5.53;1.50;;;6.70;99.90;;;;;;5080815;28;20056;-60
2023/03/05 11:06:25;;;;;;;6.07;1.30;;;6.80;99.90;;;;;;5071624;28;20051;-60
2023/03/05 11:08:51;;;;;;;5.20;0.82;;;6.90;99.90;;;;;;5069325;28;20047;-60
2023/03/05 11:11:21;;;;;;;4.10;1.50;;;6.90;99.90;;;;;;5087896;28;20089;-59
2023/03/05 11:13:52;;;;;;;4.07;1.20;;;6.80;99.90;;;;;;5078234;28;20044;-60
2023/03/05 11:16:28;;;;;;;4.78;1.65;;;6.70;99.90;;;;;;5067743;28;20041;-60
2023/03/05 11:19:39;;;;;;;6.05;1.20;;;6.70;99.90;;;;;;5068440;28;20121;-60
2023/03/05 11:22:15;;;;;;;7.03;1.35;;;6.80;99.90;;;;;;5091272;28;20071;-60
2023/03/05 11:24:45;;;;;;;4.63;0.95;;;6.80;99.90;;;;;;5088742;28;20047;-60
2023/03/05 11:27:37;;;;;;;2.63;0.90;;;6.90;99.90;;;;;;5069069;28;20039;-60
2023/03/05 11:30:18;;;;;;;5.50;1.70;;;7.20;99.90;;;;;;5064653;28;20101;-60
2023/03/05 11:32:43;;;;;;;4.90;1.05;;;7.30;99.90;;;;;;5084385;28;20041;-60
2023/03/05 11:35:30;;;;;;;5.20;0.90;;;7.30;99.90;;;;;;5086909;28;20047;-60
2023/03/05 11:38:02;;;;;;;8.45;1.40;;;7.40;99.90;;;;;;5080127;28;20040;-60
2023/03/05 11:40:31;;;;;;;4.10;0.90;;;7.50;99.90;;;;;;5080875;28;20400;-60
2023/03/05 11:43:01;;;;;;;17.80;1.98;;;7.50;99.90;;;;;;5084702;28;20072;-60
2023/03/05 11:45:29;;;;;;;2.72;0.80;;;7.40;99.90;;;;;;5072354;28;20441;-61
2023/03/05 11:48:11;;;;;;;5.15;1.73;;;7.30;99.90;;;;;;5081585;28;20058;-60
2023/03/05 11:50:39;;;;;;;7.93;1.98;;;7.10;99.90;;;;;;5082353;28;20044;-60
2023/03/05 11:53:29;;;;;;;5.97;1.27;;;7.00;99.90;;;;;;5086948;28;20500;-60
2023/03/05 11:56:02;;;;;;;3.60;1.20;;;7.00;99.90;;;;;;5091620;28;20043;-60
2023/03/05 11:58:44;;;;;;;4.15;0.98;;;6.90;99.90;;;;;;5082175;28;20051;-60
2023/03/05 12:01:16;;;;;;;5.65;2.30;;;6.90;99.90;;;;;;5055236;28;20041;-60
2023/03/05 12:03:42;;;;;;;5.72;1.25;;;6.90;99.90;;;;;;5079853;28;20377;-60
2023/03/05 12:06:33;;;;;;;4.57;0.95;;;6.90;99.90;;;;;;5071338;28;20088;-61
2023/03/05 12:09:06;;;;;;;4.45;1.05;;;6.90;99.90;;;;;;5072503;28;20568;-60
2023/03/05 12:11:33;;;;;;;5.22;1.48;;;6.90;99.90;;;;;;5082022;28;20040;-60
2023/03/05 12:14:18;;;;;;;8.07;1.48;;;6.90;99.90;;;;;;5091054;28;20505;-60
2023/03/05 12:17:02;;;;;;;5.32;1.25;;;6.90;99.90;;;;;;5083133;28;20028;-61
2023/03/05 12:19:55;;;;;;;4.55;0.90;;;6.90;99.90;;;;;;5095209;28;20131;-60
2023/03/05 12:22:24;;;;;;;6.82;1.30;;;6.90;99.90;;;;;;5093235;28;20035;-61
2023/03/05 12:24:50;;;;;;;4.20;1.20;;;7.00;99.90;;;;;;5080599;28;20041;-60
2023/03/05 12:27:35;;;;;;;6.47;1.50;;;7.10;99.90;;;;;;5073567;28;20044;-60
2023/03/05 12:30:02;;;;;;;7.03;1.53;;;7.20;99.90;;;;;;5074555;28;20048;-60
2023/03/05 12:32:30;;;;;;;2.03;0.73;;;7.20;99.90;;;;;;5072990;28;20792;-60
2023/03/05 12:34:55;;;;;;;4.70;1.10;;;7.00;99.90;;;;;;5074003;28;20055;-60
2023/03/05 12:37:22;;;;;;;4.93;1.20;;;6.90;99.90;;;;;;5074876;28;20041;-60
2023/03/05 12:40:18;;;;;;;9.45;1.70;;;6.90;99.90;;;;;;5073445;28;20657;-60
2023/03/05 12:42:50;;;;;;;6.65;2.30;;;7.00;99.90;;;;;;5075105;28;20040;-60
2023/03/05 12:45:18;;;;;;;6.90;2.05;;;7.10;99.90;;;;;;5073426;28;20449;-60
2023/03/05 12:47:54;;;;;;;4.65;1.38;;;7.20;99.90;;;;;;5073287;28;20503;-60
2023/03/05 12:50:25;;;;;;;6.10;1.45;;;7.10;99.90;;;;;;5073350;28;20033;-60
2023/03/05 12:53:17;;;;;;;4.95;1.13;;;7.00;99.90;;;;;;5073822;28;20040;-60
2023/03/05 12:55:56;;;;;;;4.85;1.20;;;6.90;99.90;;;;;;5073109;28;20071;-60
2023/03/05 12:58:41;;;;;;;4.20;1.10;;;6.90;99.90;;;;;;5073048;28;20048;-60
2023/03/05 13:01:23;;;;;;;5.53;0.90;;;6.90;99.90;;;;;;5072318;28;20036;-60
2023/03/05 13:03:55;;;;;;;5.50;1.15;;;7.00;99.90;;;;;;5072804;28;20045;-60
2023/03/05 13:06:34;;;;;;;8.10;1.48;;;7.20;99.90;;;;;;5073062;28;20135;-60
2023/03/05 13:09:24;;;;;;;6.78;2.30;;;7.30;99.90;;;;;;5072670;28;20076;-60